Avon, Montana
Current Conditions -  °F | °C
As of 10:53 AM on Wednesday 28 Jan 2015 (Local Time) from KHLN Reporting Station
Clear Clear  
Wind Chill: 43°   Ceiling: Unl
Heat Index: 49°   Visibility: 10mi
Dew Point: 27°   Wind: 15mph
Humidity: 43%   Direction: 260°W
Pressure: 30.22"   Gusts: NA
Location:  46.59°N, 112.61°W
Report Text: KHLN 281753Z 26013KT 10SM CLR 09/M03 A3022 RMK AO2 SLP261 T00941028 10094 20028 51020
Loading
Personal Weather Stations






























Interactive Weather Map New forecast layout! Learn more

10-Day Weather Forecast

Advertisements
Track Severe Weather on mobile